sensor_id;sensor_type;location;lat;lon;timestamp;P1;durP1;ratioP1;P2;durP2;ratioP2
40459;SDS011;26164;51.138;16.952;2024-01-30T00:00:59;19.45;;;7.85;;
40459;SDS011;26164;51.138;16.952;2024-01-30T00:03:46;18.77;;;8.02;;
40459;SDS011;26164;51.138;16.952;2024-01-30T00:06:12;19.63;;;7.80;;
40459;SDS011;26164;51.138;16.952;2024-01-30T00:08:38;19.50;;;8.48;;
40459;SDS011;26164;51.138;16.952;2024-01-30T00:11:04;20.13;;;8.35;;
40459;SDS011;26164;51.138;16.952;2024-01-30T00:13:30;19.27;;;7.88;;
40459;SDS011;26164;51.138;16.952;2024-01-30T00:15:56;21.63;;;8.40;;
40459;SDS011;26164;51.138;16.952;2024-01-30T00:18:22;23.75;;;7.90;;
40459;SDS011;26164;51.138;16.952;2024-01-30T00:20:48;19.42;;;8.20;;
40459;SDS011;26164;51.138;16.952;2024-01-30T00:23:14;20.95;;;8.18;;
40459;SDS011;26164;51.138;16.952;2024-01-30T00:25:40;20.35;;;8.07;;
40459;SDS011;26164;51.138;16.952;2024-01-30T00:28:05;23.23;;;8.35;;
40459;SDS011;26164;51.138;16.952;2024-01-30T00:30:31;20.85;;;6.82;;
40459;SDS011;26164;51.138;16.952;2024-01-30T00:32:57;19.45;;;7.82;;
40459;SDS011;26164;51.138;16.952;2024-01-30T00:35:25;17.92;;;7.10;;
40459;SDS011;26164;51.138;16.952;2024-01-30T00:37:50;18.67;;;8.27;;
40459;SDS011;26164;51.138;16.952;2024-01-30T00:40:16;19.70;;;7.93;;
40459;SDS011;26164;51.138;16.952;2024-01-30T00:42:43;22.33;;;8.40;;
40459;SDS011;26164;51.138;16.952;2024-01-30T00:45:16;20.90;;;8.00;;
40459;SDS011;26164;51.138;16.952;2024-01-30T00:47:42;16.85;;;7.10;;
40459;SDS011;26164;51.138;16.952;2024-01-30T00:50:09;18.23;;;7.20;;
40459;SDS011;26164;51.138;16.952;2024-01-30T00:52:35;19.63;;;7.53;;
40459;SDS011;26164;51.138;16.952;2024-01-30T00:55:02;19.73;;;7.13;;
40459;SDS011;26164;51.138;16.952;2024-01-30T00:57:29;17.42;;;7.13;;
40459;SDS011;26164;51.138;16.952;2024-01-30T00:59:55;16.25;;;7.28;;
40459;SDS011;26164;51.138;16.952;2024-01-30T01:02:21;19.52;;;7.57;;
40459;SDS011;26164;51.138;16.952;2024-01-30T01:04:48;17.23;;;7.80;;
40459;SDS011;26164;51.138;16.952;2024-01-30T01:07:13;21.15;;;8.65;;
40459;SDS011;26164;51.138;16.952;2024-01-30T01:09:40;24.73;;;10.48;;
40459;SDS011;26164;51.138;16.952;2024-01-30T01:12:05;22.10;;;8.23;;
40459;SDS011;26164;51.138;16.952;2024-01-30T01:14:33;19.40;;;8.23;;
40459;SDS011;26164;51.138;16.952;2024-01-30T01:16:58;24.58;;;8.63;;
40459;SDS011;26164;51.138;16.952;2024-01-30T01:19:24;20.27;;;8.10;;
40459;SDS011;26164;51.138;16.952;2024-01-30T01:21:50;18.55;;;7.65;;
40459;SDS011;26164;51.138;16.952;2024-01-30T01:24:17;16.75;;;6.47;;
40459;SDS011;26164;51.138;16.952;2024-01-30T01:26:43;15.82;;;6.35;;
40459;SDS011;26164;51.138;16.952;2024-01-30T01:29:09;18.10;;;7.22;;
40459;SDS011;26164;51.138;16.952;2024-01-30T01:31:37;16.63;;;7.13;;
40459;SDS011;26164;51.138;16.952;2024-01-30T01:34:10;17.30;;;7.20;;
40459;SDS011;26164;51.138;16.952;2024-01-30T01:36:36;18.83;;;7.35;;
40459;SDS011;26164;51.138;16.952;2024-01-30T01:39:03;18.25;;;7.97;;
40459;SDS011;26164;51.138;16.952;2024-01-30T01:41:32;20.20;;;8.05;;
40459;SDS011;26164;51.138;16.952;2024-01-30T01:43:59;16.92;;;7.32;;
40459;SDS011;26164;51.138;16.952;2024-01-30T01:46:26;18.67;;;8.65;;
40459;SDS011;26164;51.138;16.952;2024-01-30T01:48:58;19.13;;;7.82;;
40459;SDS011;26164;51.138;16.952;2024-01-30T01:51:27;18.38;;;7.43;;
40459;SDS011;26164;51.138;16.952;2024-01-30T01:53:54;17.30;;;7.15;;
40459;SDS011;26164;51.138;16.952;2024-01-30T01:56:21;21.27;;;8.40;;
40459;SDS011;26164;51.138;16.952;2024-01-30T01:58:49;21.02;;;7.88;;
40459;SDS011;26164;51.138;16.952;2024-01-30T02:01:17;18.90;;;8.00;;
40459;SDS011;26164;51.138;16.952;2024-01-30T02:03:45;18.65;;;7.68;;
40459;SDS011;26164;51.138;16.952;2024-01-30T02:06:12;19.75;;;7.85;;
40459;SDS011;26164;51.138;16.952;2024-01-30T02:08:39;18.70;;;7.65;;
40459;SDS011;26164;51.138;16.952;2024-01-30T02:11:05;17.17;;;7.00;;
40459;SDS011;26164;51.138;16.952;2024-01-30T02:13:32;19.83;;;7.43;;
40459;SDS011;26164;51.138;16.952;2024-01-30T02:15:57;19.55;;;7.47;;
40459;SDS011;26164;51.138;16.952;2024-01-30T02:18:24;21.95;;;7.75;;
40459;SDS011;26164;51.138;16.952;2024-01-30T02:20:50;20.17;;;8.00;;
40459;SDS011;26164;51.138;16.952;2024-01-30T02:23:23;19.45;;;7.43;;
40459;SDS011;26164;51.138;16.952;2024-01-30T02:25:50;17.67;;;6.75;;
40459;SDS011;26164;51.138;16.952;2024-01-30T02:28:19;20.80;;;7.70;;
40459;SDS011;26164;51.138;16.952;2024-01-30T02:30:46;14.95;;;6.70;;
40459;SDS011;26164;51.138;16.952;2024-01-30T02:33:13;17.00;;;7.00;;
40459;SDS011;26164;51.138;16.952;2024-01-30T02:35:38;18.23;;;7.63;;
40459;SDS011;26164;51.138;16.952;2024-01-30T02:38:05;21.33;;;7.53;;
40459;SDS011;26164;51.138;16.952;2024-01-30T02:40:31;21.92;;;6.78;;
40459;SDS011;26164;51.138;16.952;2024-01-30T02:42:58;19.10;;;7.43;;
40459;SDS011;26164;51.138;16.952;2024-01-30T02:45:25;19.80;;;7.68;;
40459;SDS011;26164;51.138;16.952;2024-01-30T02:47:51;15.82;;;6.38;;
40459;SDS011;26164;51.138;16.952;2024-01-30T02:50:18;15.77;;;7.07;;
40459;SDS011;26164;51.138;16.952;2024-01-30T02:52:44;14.25;;;6.78;;
40459;SDS011;26164;51.138;16.952;2024-01-30T02:55:10;20.52;;;7.13;;
40459;SDS011;26164;51.138;16.952;2024-01-30T02:57:37;18.00;;;6.93;;
40459;SDS011;26164;51.138;16.952;2024-01-30T03:00:04;21.77;;;7.40;;
40459;SDS011;26164;51.138;16.952;2024-01-30T03:02:32;21.38;;;8.57;;
40459;SDS011;26164;51.138;16.952;2024-01-30T03:05:00;20.00;;;7.82;;
40459;SDS011;26164;51.138;16.952;2024-01-30T03:07:30;19.58;;;7.72;;
40459;SDS011;26164;51.138;16.952;2024-01-30T03:09:56;15.23;;;7.65;;
40459;SDS011;26164;51.138;16.952;2024-01-30T03:12:22;21.95;;;8.23;;
40459;SDS011;26164;51.138;16.952;2024-01-30T03:14:48;27.75;;;7.93;;
40459;SDS011;26164;51.138;16.952;2024-01-30T03:17:16;17.58;;;8.00;;
40459;SDS011;26164;51.138;16.952;2024-01-30T03:19:42;21.52;;;7.32;;
40459;SDS011;26164;51.138;16.952;2024-01-30T03:22:09;19.58;;;7.85;;
40459;SDS011;26164;51.138;16.952;2024-01-30T03:24:35;18.85;;;7.70;;
40459;SDS011;26164;51.138;16.952;2024-01-30T03:27:02;17.20;;;7.53;;
40459;SDS011;26164;51.138;16.952;2024-01-30T03:29:31;21.80;;;8.65;;
40459;SDS011;26164;51.138;16.952;2024-01-30T03:31:58;18.60;;;8.95;;
40459;SDS011;26164;51.138;16.952;2024-01-30T03:34:40;21.10;;;7.82;;
40459;SDS011;26164;51.138;16.952;2024-01-30T03:37:06;21.05;;;8.65;;
40459;SDS011;26164;51.138;16.952;2024-01-30T03:39:32;22.90;;;8.45;;
40459;SDS011;26164;51.138;16.952;2024-01-30T03:41:58;20.52;;;8.27;;
40459;SDS011;26164;51.138;16.952;2024-01-30T03:44:24;25.63;;;8.93;;
40459;SDS011;26164;51.138;16.952;2024-01-30T03:46:50;20.27;;;8.57;;
40459;SDS011;26164;51.138;16.952;2024-01-30T03:49:16;18.48;;;8.90;;
40459;SDS011;26164;51.138;16.952;2024-01-30T03:51:42;20.92;;;8.98;;
40459;SDS011;26164;51.138;16.952;2024-01-30T03:54:08;19.40;;;8.93;;
40459;SDS011;26164;51.138;16.952;2024-01-30T03:56:35;32.58;;;9.43;;
40459;SDS011;26164;51.138;16.952;2024-01-30T03:59:01;20.52;;;9.13;;
40459;SDS011;26164;51.138;16.952;2024-01-30T04:01:32;23.00;;;8.90;;
40459;SDS011;26164;51.138;16.952;2024-01-30T04:03:58;31.48;;;9.77;;
40459;SDS011;26164;51.138;16.952;2024-01-30T04:06:24;23.38;;;9.75;;
40459;SDS011;26164;51.138;16.952;2024-01-30T04:08:50;22.52;;;9.32;;
40459;SDS011;26164;51.138;16.952;2024-01-30T04:11:18;25.67;;;9.27;;
40459;SDS011;26164;51.138;16.952;2024-01-30T04:13:45;23.38;;;9.40;;
40459;SDS011;26164;51.138;16.952;2024-01-30T04:16:20;20.38;;;8.73;;
40459;SDS011;26164;51.138;16.952;2024-01-30T04:18:47;23.60;;;9.38;;
40459;SDS011;26164;51.138;16.952;2024-01-30T04:21:14;22.77;;;9.02;;
40459;SDS011;26164;51.138;16.952;2024-01-30T04:23:42;18.60;;;8.25;;
40459;SDS011;26164;51.138;16.952;2024-01-30T04:26:11;23.08;;;8.73;;
40459;SDS011;26164;51.138;16.952;2024-01-30T04:28:37;23.05;;;9.00;;
40459;SDS011;26164;51.138;16.952;2024-01-30T04:31:04;24.42;;;9.20;;
40459;SDS011;26164;51.138;16.952;2024-01-30T04:33:31;19.63;;;8.60;;
40459;SDS011;26164;51.138;16.952;2024-01-30T04:35:59;22.73;;;8.75;;
40459;SDS011;26164;51.138;16.952;2024-01-30T04:38:25;21.77;;;8.45;;
40459;SDS011;26164;51.138;16.952;2024-01-30T04:40:51;18.25;;;8.07;;
40459;SDS011;26164;51.138;16.952;2024-01-30T04:43:17;22.17;;;8.77;;
40459;SDS011;26164;51.138;16.952;2024-01-30T04:45:44;20.63;;;8.93;;
40459;SDS011;26164;51.138;16.952;2024-01-30T04:48:11;23.27;;;9.32;;
40459;SDS011;26164;51.138;16.952;2024-01-30T04:50:37;22.38;;;7.90;;
40459;SDS011;26164;51.138;16.952;2024-01-30T04:53:03;19.85;;;8.65;;
40459;SDS011;26164;51.138;16.952;2024-01-30T04:55:29;21.30;;;9.35;;
40459;SDS011;26164;51.138;16.952;2024-01-30T04:57:55;22.63;;;8.82;;
40459;SDS011;26164;51.138;16.952;2024-01-30T05:00:21;19.67;;;8.63;;
40459;SDS011;26164;51.138;16.952;2024-01-30T05:02:47;21.23;;;8.80;;
40459;SDS011;26164;51.138;16.952;2024-01-30T05:05:16;23.30;;;8.75;;
40459;SDS011;26164;51.138;16.952;2024-01-30T05:07:44;19.20;;;8.10;;
40459;SDS011;26164;51.138;16.952;2024-01-30T05:10:12;21.63;;;8.95;;
40459;SDS011;26164;51.138;16.952;2024-01-30T05:12:40;19.95;;;8.23;;
40459;SDS011;26164;51.138;16.952;2024-01-30T05:15:06;22.15;;;8.32;;
40459;SDS011;26164;51.138;16.952;2024-01-30T05:17:32;19.42;;;8.27;;
40459;SDS011;26164;51.138;16.952;2024-01-30T05:19:59;17.23;;;8.32;;
40459;SDS011;26164;51.138;16.952;2024-01-30T05:22:25;17.77;;;8.18;;
40459;SDS011;26164;51.138;16.952;2024-01-30T05:24:52;23.52;;;8.20;;
40459;SDS011;26164;51.138;16.952;2024-01-30T05:27:19;20.52;;;8.55;;
40459;SDS011;26164;51.138;16.952;2024-01-30T05:29:48;20.45;;;8.23;;
40459;SDS011;26164;51.138;16.952;2024-01-30T05:32:15;23.92;;;8.98;;
40459;SDS011;26164;51.138;16.952;2024-01-30T05:34:47;22.90;;;8.25;;
40459;SDS011;26164;51.138;16.952;2024-01-30T05:37:17;20.60;;;8.82;;
40459;SDS011;26164;51.138;16.952;2024-01-30T05:39:44;19.33;;;8.43;;
40459;SDS011;26164;51.138;16.952;2024-01-30T05:42:11;23.70;;;9.82;;
40459;SDS011;26164;51.138;16.952;2024-01-30T05:56:21;27.38;;;9.95;;
40459;SDS011;26164;51.138;16.952;2024-01-30T05:58:49;23.77;;;10.15;;
40459;SDS011;26164;51.138;16.952;2024-01-30T06:01:22;22.58;;;10.18;;
40459;SDS011;26164;51.138;16.952;2024-01-30T06:04:47;19.67;;;9.50;;
40459;SDS011;26164;51.138;16.952;2024-01-30T06:07:15;25.65;;;9.57;;
40459;SDS011;26164;51.138;16.952;2024-01-30T06:09:41;25.45;;;10.25;;
40459;SDS011;26164;51.138;16.952;2024-01-30T06:12:23;27.20;;;9.68;;
40459;SDS011;26164;51.138;16.952;2024-01-30T06:14:51;26.15;;;11.23;;
40459;SDS011;26164;51.138;16.952;2024-01-30T06:17:20;28.60;;;10.23;;
40459;SDS011;26164;51.138;16.952;2024-01-30T06:19:48;23.52;;;9.43;;
40459;SDS011;26164;51.138;16.952;2024-01-30T06:22:14;26.60;;;11.32;;
40459;SDS011;26164;51.138;16.952;2024-01-30T06:24:40;21.38;;;9.77;;
40459;SDS011;26164;51.138;16.952;2024-01-30T06:27:06;24.88;;;10.18;;
40459;SDS011;26164;51.138;16.952;2024-01-30T06:29:43;26.42;;;11.15;;
40459;SDS011;26164;51.138;16.952;2024-01-30T06:32:11;27.88;;;10.32;;
40459;SDS011;26164;51.138;16.952;2024-01-30T06:35:56;24.05;;;10.07;;
40459;SDS011;26164;51.138;16.952;2024-01-30T06:38:23;25.23;;;9.23;;
40459;SDS011;26164;51.138;16.952;2024-01-30T06:41:05;23.02;;;10.23;;
40459;SDS011;26164;51.138;16.952;2024-01-30T06:43:40;31.52;;;10.45;;
40459;SDS011;26164;51.138;16.952;2024-01-30T06:46:07;27.83;;;10.48;;
40459;SDS011;26164;51.138;16.952;2024-01-30T06:48:35;27.83;;;10.35;;
40459;SDS011;26164;51.138;16.952;2024-01-30T06:51:01;29.55;;;11.35;;
40459;SDS011;26164;51.138;16.952;2024-01-30T06:53:43;25.75;;;11.07;;
40459;SDS011;26164;51.138;16.952;2024-01-30T06:56:13;27.13;;;11.05;;
40459;SDS011;26164;51.138;16.952;2024-01-30T06:58:39;24.73;;;10.07;;
40459;SDS011;26164;51.138;16.952;2024-01-30T07:01:20;29.98;;;10.80;;
40459;SDS011;26164;51.138;16.952;2024-01-30T07:04:01;25.48;;;10.77;;
40459;SDS011;26164;51.138;16.952;2024-01-30T07:06:36;25.00;;;10.70;;
40459;SDS011;26164;51.138;16.952;2024-01-30T07:09:03;28.40;;;11.55;;
40459;SDS011;26164;51.138;16.952;2024-01-30T07:11:32;30.10;;;13.00;;
40459;SDS011;26164;51.138;16.952;2024-01-30T07:17:30;22.15;;;10.35;;
40459;SDS011;26164;51.138;16.952;2024-01-30T07:20:08;18.88;;;9.50;;
40459;SDS011;26164;51.138;16.952;2024-01-30T07:22:35;25.05;;;9.18;;
40459;SDS011;26164;51.138;16.952;2024-01-30T07:25:18;23.70;;;9.85;;
40459;SDS011;26164;51.138;16.952;2024-01-30T07:27:56;26.98;;;9.80;;
40459;SDS011;26164;51.138;16.952;2024-01-30T07:30:40;31.27;;;11.32;;
40459;SDS011;26164;51.138;16.952;2024-01-30T07:33:18;24.88;;;9.52;;
40459;SDS011;26164;51.138;16.952;2024-01-30T07:35:48;21.55;;;9.60;;
40459;SDS011;26164;51.138;16.952;2024-01-30T07:38:38;24.95;;;9.73;;
40459;SDS011;26164;51.138;16.952;2024-01-30T07:41:20;21.80;;;9.20;;
40459;SDS011;26164;51.138;16.952;2024-01-30T07:43:48;23.00;;;8.75;;
40459;SDS011;26164;51.138;16.952;2024-01-30T07:46:29;23.13;;;9.85;;
40459;SDS011;26164;51.138;16.952;2024-01-30T07:49:14;20.40;;;8.93;;
40459;SDS011;26164;51.138;16.952;2024-01-30T07:51:56;19.83;;;8.48;;
40459;SDS011;26164;51.138;16.952;2024-01-30T07:54:38;22.27;;;9.05;;
40459;SDS011;26164;51.138;16.952;2024-01-30T07:57:31;24.10;;;8.57;;
40459;SDS011;26164;51.138;16.952;2024-01-30T08:05:02;20.48;;;8.20;;
40459;SDS011;26164;51.138;16.952;2024-01-30T08:07:58;25.55;;;10.80;;
40459;SDS011;26164;51.138;16.952;2024-01-30T08:11:07;21.77;;;8.45;;
40459;SDS011;26164;51.138;16.952;2024-01-30T08:13:50;22.73;;;8.93;;
40459;SDS011;26164;51.138;16.952;2024-01-30T08:16:31;21.55;;;8.57;;
40459;SDS011;26164;51.138;16.952;2024-01-30T08:19:16;24.20;;;8.18;;
40459;SDS011;26164;51.138;16.952;2024-01-30T08:22:02;25.20;;;7.53;;
40459;SDS011;26164;51.138;16.952;2024-01-30T08:24:49;23.98;;;7.95;;
40459;SDS011;26164;51.138;16.952;2024-01-30T08:27:30;19.35;;;7.97;;
40459;SDS011;26164;51.138;16.952;2024-01-30T08:29:59;24.50;;;7.53;;
40459;SDS011;26164;51.138;16.952;2024-01-30T08:32:29;22.52;;;9.07;;
40459;SDS011;26164;51.138;16.952;2024-01-30T08:34:55;21.75;;;8.23;;
40459;SDS011;26164;51.138;16.952;2024-01-30T08:37:34;26.30;;;8.43;;
40459;SDS011;26164;51.138;16.952;2024-01-30T08:40:02;23.55;;;8.32;;
40459;SDS011;26164;51.138;16.952;2024-01-30T08:43:07;24.58;;;8.98;;
40459;SDS011;26164;51.138;16.952;2024-01-30T08:45:52;23.38;;;9.38;;
40459;SDS011;26164;51.138;16.952;2024-01-30T08:52:33;20.38;;;9.13;;
40459;SDS011;26164;51.138;16.952;2024-01-30T08:55:21;20.80;;;7.60;;
40459;SDS011;26164;51.138;16.952;2024-01-30T08:58:05;25.08;;;8.23;;
40459;SDS011;26164;51.138;16.952;2024-01-30T09:00:50;30.50;;;12.10;;
40459;SDS011;26164;51.138;16.952;2024-01-30T09:03:33;28.13;;;8.05;;
40459;SDS011;26164;51.138;16.952;2024-01-30T09:06:15;21.90;;;7.75;;
40459;SDS011;26164;51.138;16.952;2024-01-30T09:08:59;21.55;;;7.15;;
40459;SDS011;26164;51.138;16.952;2024-01-30T09:11:41;15.05;;;6.47;;
40459;SDS011;26164;51.138;16.952;2024-01-30T09:14:25;14.95;;;6.75;;
40459;SDS011;26164;51.138;16.952;2024-01-30T09:17:09;20.87;;;7.60;;
40459;SDS011;26164;51.138;16.952;2024-01-30T09:19:37;15.38;;;7.20;;
40459;SDS011;26164;51.138;16.952;2024-01-30T09:22:05;14.98;;;7.10;;
40459;SDS011;26164;51.138;16.952;2024-01-30T09:24:48;16.80;;;7.00;;
40459;SDS011;26164;51.138;16.952;2024-01-30T09:27:15;17.90;;;7.40;;
40459;SDS011;26164;51.138;16.952;2024-01-30T09:29:43;16.92;;;7.40;;
40459;SDS011;26164;51.138;16.952;2024-01-30T09:32:23;17.67;;;6.95;;
40459;SDS011;26164;51.138;16.952;2024-01-30T09:35:06;17.63;;;6.88;;
40459;SDS011;26164;51.138;16.952;2024-01-30T09:37:49;18.13;;;7.15;;
40459;SDS011;26164;51.138;16.952;2024-01-30T09:40:33;20.48;;;7.50;;
40459;SDS011;26164;51.138;16.952;2024-01-30T09:43:14;14.45;;;6.82;;
40459;SDS011;26164;51.138;16.952;2024-01-30T09:45:51;15.00;;;6.22;;
40459;SDS011;26164;51.138;16.952;2024-01-30T09:48:26;14.27;;;5.63;;
40459;SDS011;26164;51.138;16.952;2024-01-30T09:51:06;16.05;;;5.45;;
40459;SDS011;26164;51.138;16.952;2024-01-30T09:53:33;12.52;;;5.07;;
40459;SDS011;26164;51.138;16.952;2024-01-30T09:56:15;14.95;;;5.15;;
40459;SDS011;26164;51.138;16.952;2024-01-30T09:58:45;12.73;;;5.68;;
40459;SDS011;26164;51.138;16.952;2024-01-30T10:01:15;14.50;;;6.50;;
40459;SDS011;26164;51.138;16.952;2024-01-30T10:04:01;15.60;;;6.55;;
40459;SDS011;26164;51.138;16.952;2024-01-30T10:06:33;15.18;;;5.75;;
40459;SDS011;26164;51.138;16.952;2024-01-30T10:09:00;13.70;;;5.30;;
40459;SDS011;26164;51.138;16.952;2024-01-30T10:11:40;13.27;;;5.90;;
40459;SDS011;26164;51.138;16.952;2024-01-30T10:14:14;17.67;;;5.30;;
40459;SDS011;26164;51.138;16.952;2024-01-30T10:16:45;19.48;;;5.63;;
40459;SDS011;26164;51.138;16.952;2024-01-30T10:19:27;14.50;;;4.93;;
40459;SDS011;26164;51.138;16.952;2024-01-30T10:22:09;9.70;;;4.22;;
40459;SDS011;26164;51.138;16.952;2024-01-30T10:24:40;9.65;;;4.25;;
40459;SDS011;26164;51.138;16.952;2024-01-30T10:27:07;10.63;;;4.78;;
40459;SDS011;26164;51.138;16.952;2024-01-30T10:29:49;11.82;;;4.47;;
40459;SDS011;26164;51.138;16.952;2024-01-30T10:32:32;9.68;;;4.68;;
40459;SDS011;26164;51.138;16.952;2024-01-30T10:35:15;18.85;;;4.25;;
40459;SDS011;26164;51.138;16.952;2024-01-30T10:37:56;9.85;;;4.10;;
40459;SDS011;26164;51.138;16.952;2024-01-30T10:40:35;14.73;;;4.20;;
40459;SDS011;26164;51.138;16.952;2024-01-30T10:43:05;12.20;;;4.47;;
40459;SDS011;26164;51.138;16.952;2024-01-30T10:45:51;12.23;;;4.43;;
40459;SDS011;26164;51.138;16.952;2024-01-30T10:48:41;12.65;;;4.32;;
40459;SDS011;26164;51.138;16.952;2024-01-30T10:51:14;15.57;;;4.80;;
40459;SDS011;26164;51.138;16.952;2024-01-30T10:53:43;12.35;;;4.43;;
40459;SDS011;26164;51.138;16.952;2024-01-30T10:56:14;11.55;;;4.13;;
40459;SDS011;26164;51.138;16.952;2024-01-30T10:58:41;11.52;;;4.10;;
40459;SDS011;26164;51.138;16.952;2024-01-30T11:01:15;10.85;;;3.58;;
40459;SDS011;26164;51.138;16.952;2024-01-30T11:03:43;11.45;;;4.38;;
40459;SDS011;26164;51.138;16.952;2024-01-30T11:06:12;10.13;;;3.25;;
40459;SDS011;26164;51.138;16.952;2024-01-30T11:08:44;9.73;;;4.75;;
40459;SDS011;26164;51.138;16.952;2024-01-30T11:11:14;10.13;;;4.25;;
40459;SDS011;26164;51.138;16.952;2024-01-30T11:13:45;11.05;;;3.92;;
40459;SDS011;26164;51.138;16.952;2024-01-30T11:16:15;6.95;;;3.88;;
40459;SDS011;26164;51.138;16.952;2024-01-30T11:18:41;8.88;;;3.30;;
40459;SDS011;26164;51.138;16.952;2024-01-30T11:21:11;7.97;;;3.58;;
40459;SDS011;26164;51.138;16.952;2024-01-30T11:23:39;15.70;;;4.03;;
40459;SDS011;26164;51.138;16.952;2024-01-30T11:26:06;9.73;;;3.80;;
40459;SDS011;26164;51.138;16.952;2024-01-30T11:28:33;12.27;;;3.92;;
40459;SDS011;26164;51.138;16.952;2024-01-30T11:31:06;13.80;;;3.85;;
40459;SDS011;26164;51.138;16.952;2024-01-30T11:33:32;10.98;;;4.28;;
40459;SDS011;26164;51.138;16.952;2024-01-30T11:36:14;9.77;;;4.05;;
40459;SDS011;26164;51.138;16.952;2024-01-30T11:38:57;12.32;;;4.07;;
40459;SDS011;26164;51.138;16.952;2024-01-30T11:41:27;9.57;;;3.88;;
40459;SDS011;26164;51.138;16.952;2024-01-30T11:43:54;9.63;;;4.00;;
40459;SDS011;26164;51.138;16.952;2024-01-30T11:46:35;12.15;;;4.68;;
40459;SDS011;26164;51.138;16.952;2024-01-30T11:49:07;11.65;;;4.40;;
40459;SDS011;26164;51.138;16.952;2024-01-30T11:51:33;14.65;;;4.28;;
40459;SDS011;26164;51.138;16.952;2024-01-30T11:54:03;10.88;;;4.53;;
40459;SDS011;26164;51.138;16.952;2024-01-30T11:56:30;14.43;;;4.38;;
40459;SDS011;26164;51.138;16.952;2024-01-30T11:58:58;11.38;;;4.20;;
40459;SDS011;26164;51.138;16.952;2024-01-30T12:01:26;11.23;;;4.40;;
40459;SDS011;26164;51.138;16.952;2024-01-30T12:03:53;13.70;;;4.80;;
40459;SDS011;26164;51.138;16.952;2024-01-30T12:06:19;15.00;;;4.40;;
40459;SDS011;26164;51.138;16.952;2024-01-30T12:09:00;10.85;;;4.53;;
40459;SDS011;26164;51.138;16.952;2024-01-30T12:11:45;10.32;;;4.20;;
40459;SDS011;26164;51.138;16.952;2024-01-30T12:14:27;12.98;;;4.53;;
40459;SDS011;26164;51.138;16.952;2024-01-30T12:17:09;14.73;;;5.10;;
40459;SDS011;26164;51.138;16.952;2024-01-30T12:20:02;12.93;;;4.68;;
40459;SDS011;26164;51.138;16.952;2024-01-30T12:25:12;10.73;;;4.68;;
40459;SDS011;26164;51.138;16.952;2024-01-30T12:27:56;11.75;;;4.50;;
40459;SDS011;26164;51.138;16.952;2024-01-30T12:30:27;12.05;;;4.82;;
40459;SDS011;26164;51.138;16.952;2024-01-30T12:33:09;14.48;;;4.85;;
40459;SDS011;26164;51.138;16.952;2024-01-30T12:35:37;10.95;;;4.32;;
40459;SDS011;26164;51.138;16.952;2024-01-30T12:38:03;13.93;;;4.28;;
40459;SDS011;26164;51.138;16.952;2024-01-30T12:40:33;13.80;;;4.28;;
40459;SDS011;26164;51.138;16.952;2024-01-30T12:43:00;10.70;;;3.90;;
40459;SDS011;26164;51.138;16.952;2024-01-30T12:45:41;10.98;;;4.38;;
40459;SDS011;26164;51.138;16.952;2024-01-30T12:48:12;9.85;;;4.28;;
40459;SDS011;26164;51.138;16.952;2024-01-30T12:50:39;9.93;;;4.13;;
40459;SDS011;26164;51.138;16.952;2024-01-30T12:53:08;9.88;;;4.10;;
40459;SDS011;26164;51.138;16.952;2024-01-30T12:55:34;10.27;;;4.57;;
40459;SDS011;26164;51.138;16.952;2024-01-30T12:58:02;13.23;;;4.82;;
40459;SDS011;26164;51.138;16.952;2024-01-30T13:00:28;18.30;;;5.53;;
40459;SDS011;26164;51.138;16.952;2024-01-30T13:02:55;11.43;;;4.55;;
40459;SDS011;26164;51.138;16.952;2024-01-30T13:05:26;11.00;;;4.13;;
40459;SDS011;26164;51.138;16.952;2024-01-30T13:07:54;14.10;;;4.40;;
40459;SDS011;26164;51.138;16.952;2024-01-30T13:10:23;9.23;;;4.18;;
40459;SDS011;26164;51.138;16.952;2024-01-30T13:12:50;17.95;;;4.70;;
40459;SDS011;26164;51.138;16.952;2024-01-30T13:15:18;12.60;;;5.20;;
40459;SDS011;26164;51.138;16.952;2024-01-30T13:17:54;11.32;;;4.15;;
40459;SDS011;26164;51.138;16.952;2024-01-30T13:20:20;9.95;;;4.45;;
40459;SDS011;26164;51.138;16.952;2024-01-30T13:22:47;10.98;;;4.10;;
40459;SDS011;26164;51.138;16.952;2024-01-30T13:25:17;10.82;;;4.45;;
40459;SDS011;26164;51.138;16.952;2024-01-30T13:27:45;10.02;;;4.35;;
40459;SDS011;26164;51.138;16.952;2024-01-30T13:30:13;12.23;;;5.20;;
40459;SDS011;26164;51.138;16.952;2024-01-30T13:32:55;16.08;;;4.78;;
40459;SDS011;26164;51.138;16.952;2024-01-30T13:35:24;11.98;;;4.90;;
40459;SDS011;26164;51.138;16.952;2024-01-30T13:37:54;13.77;;;4.93;;
40459;SDS011;26164;51.138;16.952;2024-01-30T13:40:23;8.35;;;4.20;;
40459;SDS011;26164;51.138;16.952;2024-01-30T13:42:53;14.35;;;5.00;;
40459;SDS011;26164;51.138;16.952;2024-01-30T13:46:09;13.77;;;5.28;;
40459;SDS011;26164;51.138;16.952;2024-01-30T13:48:50;14.20;;;5.60;;
40459;SDS011;26164;51.138;16.952;2024-01-30T13:51:17;15.23;;;5.47;;
40459;SDS011;26164;51.138;16.952;2024-01-30T13:53:43;21.58;;;5.70;;
40459;SDS011;26164;51.138;16.952;2024-01-30T13:56:15;13.95;;;5.63;;
40459;SDS011;26164;51.138;16.952;2024-01-30T13:59:10;22.35;;;6.28;;
40459;SDS011;26164;51.138;16.952;2024-01-30T14:01:48;19.15;;;6.32;;
40459;SDS011;26164;51.138;16.952;2024-01-30T14:04:14;18.02;;;6.32;;
40459;SDS011;26164;51.138;16.952;2024-01-30T14:06:55;17.85;;;6.72;;
40459;SDS011;26164;51.138;16.952;2024-01-30T14:09:22;19.83;;;6.68;;
40459;SDS011;26164;51.138;16.952;2024-01-30T14:11:50;22.63;;;6.85;;
40459;SDS011;26164;51.138;16.952;2024-01-30T14:14:22;18.67;;;6.95;;
40459;SDS011;26164;51.138;16.952;2024-01-30T14:16:48;22.70;;;7.97;;
40459;SDS011;26164;51.138;16.952;2024-01-30T14:19:21;15.88;;;6.50;;
40459;SDS011;26164;51.138;16.952;2024-01-30T14:21:48;20.73;;;7.50;;
40459;SDS011;26164;51.138;16.952;2024-01-30T14:24:18;23.15;;;7.75;;
40459;SDS011;26164;51.138;16.952;2024-01-30T14:26:44;23.33;;;9.15;;
40459;SDS011;26164;51.138;16.952;2024-01-30T14:29:25;31.92;;;11.80;;
40459;SDS011;26164;51.138;16.952;2024-01-30T14:31:52;29.85;;;11.45;;
40459;SDS011;26164;51.138;16.952;2024-01-30T14:34:20;32.40;;;11.57;;
40459;SDS011;26164;51.138;16.952;2024-01-30T14:36:47;22.17;;;9.38;;
40459;SDS011;26164;51.138;16.952;2024-01-30T14:39:13;22.15;;;8.98;;
40459;SDS011;26164;51.138;16.952;2024-01-30T14:41:56;21.02;;;8.70;;
40459;SDS011;26164;51.138;16.952;2024-01-30T14:44:33;24.50;;;9.77;;
40459;SDS011;26164;51.138;16.952;2024-01-30T14:47:00;23.95;;;9.00;;
40459;SDS011;26164;51.138;16.952;2024-01-30T14:49:27;22.35;;;9.50;;
40459;SDS011;26164;51.138;16.952;2024-01-30T14:51:54;25.00;;;9.15;;
40459;SDS011;26164;51.138;16.952;2024-01-30T14:54:40;34.80;;;9.55;;
40459;SDS011;26164;51.138;16.952;2024-01-30T14:57:07;32.17;;;9.82;;
40459;SDS011;26164;51.138;16.952;2024-01-30T14:59:49;25.33;;;8.75;;
40459;SDS011;26164;51.138;16.952;2024-01-30T15:02:20;22.88;;;9.07;;
40459;SDS011;26164;51.138;16.952;2024-01-30T15:04:50;25.80;;;9.13;;
40459;SDS011;26164;51.138;16.952;2024-01-30T15:12:07;21.95;;;8.88;;
40459;SDS011;26164;51.138;16.952;2024-01-30T15:14:49;24.92;;;9.07;;
40459;SDS011;26164;51.138;16.952;2024-01-30T15:17:31;22.38;;;9.20;;
40459;SDS011;26164;51.138;16.952;2024-01-30T15:24:45;25.77;;;9.27;;